createdAt,value
2023-04-12T00:02:45.888Z,100718.06
2023-04-12T00:05:54.683Z,100708.72
2023-04-12T00:08:58.366Z,100703.69
2023-04-12T00:12:01.889Z,100699.78
2023-04-12T00:15:08.234Z,100693.09
2023-04-12T00:18:11.416Z,100696.78
2023-04-12T00:21:19.380Z,100697.72
2023-04-12T00:24:22.400Z,100699.41
2023-04-12T00:27:25.979Z,100701.41
2023-04-12T00:30:30.210Z,100693.31
2023-04-12T00:33:34.656Z,100686.66
2023-04-12T00:36:37.633Z,100682.44
2023-04-12T00:39:40.607Z,100688.41
2023-04-12T00:42:44.356Z,100683.25
2023-04-12T00:45:48.944Z,100686.00
2023-04-12T00:48:51.944Z,100694.84
2023-04-12T00:51:55.336Z,100700.19
2023-04-12T00:54:59.167Z,100688.75
2023-04-12T00:58:03.475Z,100697.09
2023-04-12T01:01:10.342Z,100692.34
2023-04-12T01:04:13.935Z,100687.75
2023-04-12T01:07:26.487Z,100688.22
2023-04-12T01:10:42.908Z,100683.13
2023-04-12T01:13:59.213Z,100677.97
2023-04-12T01:17:08.184Z,100672.06
2023-04-12T01:20:17.174Z,100673.09
2023-04-12T01:23:48.955Z,100668.06
2023-04-12T01:26:52.836Z,100665.28
2023-04-12T01:29:59.191Z,100659.44
2023-04-12T01:33:07.202Z,100661.50
2023-04-12T01:36:14.995Z,100656.47
2023-04-12T01:39:17.976Z,100652.09
2023-04-12T01:42:21.752Z,100644.06
2023-04-12T01:45:27.427Z,100639.59
2023-04-12T01:48:30.631Z,100639.50
2023-04-12T01:51:49.726Z,100637.94
2023-04-12T01:54:58.713Z,100645.00
2023-04-12T01:58:04.216Z,100646.16
2023-04-12T02:01:10.612Z,100644.34
2023-04-12T02:04:15.924Z,100638.53
2023-04-12T02:07:21.109Z,100641.91
2023-04-12T02:10:31.868Z,100640.25
2023-04-12T02:13:35.242Z,100632.28
2023-04-12T02:16:42.227Z,100634.69
2023-04-12T02:19:45.554Z,100614.13
2023-04-12T02:22:49.030Z,100618.47
2023-04-12T02:25:53.687Z,100621.94
2023-04-12T02:28:58.483Z,100607.47
2023-04-12T02:32:03.528Z,100601.13
2023-04-12T02:35:08.446Z,100605.34
2023-04-12T02:38:11.557Z,100604.34
2023-04-12T02:41:18.984Z,100599.47
2023-04-12T02:44:24.071Z,100602.16
2023-04-12T02:47:45.452Z,100593.97
2023-04-12T02:50:49.202Z,100587.13
2023-04-12T02:53:56.130Z,100582.13
2023-04-12T02:57:03.781Z,100583.13
2023-04-12T03:00:15.336Z,100574.53
2023-04-12T03:03:22.901Z,100583.13
2023-04-12T03:06:30.072Z,100578.91
2023-04-12T03:09:34.760Z,100577.66
2023-04-12T03:12:38.812Z,100570.78
2023-04-12T03:15:58.917Z,100558.94
2023-04-12T03:19:10.716Z,100551.69
2023-04-12T03:22:14.572Z,100547.16
2023-04-12T03:25:22.022Z,100555.84
2023-04-12T03:28:31.450Z,100546.47
2023-04-12T03:31:35.711Z,100545.66
2023-04-12T03:34:46.309Z,100548.31
2023-04-12T03:37:52.814Z,100545.91
2023-04-12T03:40:55.900Z,100542.66
2023-04-12T03:44:06.502Z,100543.50
2023-04-12T03:47:13.586Z,100537.59
2023-04-12T03:50:18.030Z,100525.09
2023-04-12T03:53:28.007Z,100521.94
2023-04-12T03:56:31.107Z,100512.44
2023-04-12T03:59:38.312Z,100507.19
2023-04-12T04:02:42.057Z,100501.09
2023-04-12T04:05:47.568Z,100491.53
2023-04-12T04:08:54.797Z,100490.53
2023-04-12T04:11:58.044Z,100486.41
2023-04-12T04:15:02.169Z,100493.34
2023-04-12T04:18:07.697Z,100493.59
2023-04-12T04:21:29.512Z,100501.50
2023-04-12T04:24:39.222Z,100504.19
2023-04-12T04:27:44.753Z,100495.69
2023-04-12T04:30:48.356Z,100495.94
2023-04-12T04:33:54.795Z,100502.75
2023-04-12T04:37:07.329Z,100494.38
2023-04-12T04:40:12.687Z,100495.09
2023-04-12T04:43:18.539Z,100491.63
2023-04-12T04:46:22.094Z,100481.25
2023-04-12T04:49:25.264Z,100482.22
2023-04-12T04:52:29.860Z,100483.66
2023-04-12T04:55:38.161Z,100481.16
2023-04-12T04:58:41.260Z,100481.63
2023-04-12T05:01:46.212Z,100475.38
2023-04-12T05:04:52.197Z,100470.16
2023-04-12T05:08:00.010Z,100474.22
2023-04-12T05:11:06.819Z,100473.25
2023-04-12T05:14:11.352Z,100475.53
2023-04-12T05:17:17.459Z,100469.56
2023-04-12T05:20:20.887Z,100470.63
2023-04-12T05:27:19.990Z,100462.22
2023-04-12T05:30:24.748Z,100460.56
2023-04-12T05:33:29.030Z,100455.75
2023-04-12T05:36:33.466Z,100454.72
2023-04-12T05:39:42.754Z,100446.53
2023-04-12T05:42:47.161Z,100447.69
2023-04-12T05:45:51.972Z,100443.88
2023-04-12T05:48:58.902Z,100439.91
2023-04-12T05:52:06.688Z,100429.91
2023-04-12T05:55:16.316Z,100420.16
2023-04-12T05:58:19.540Z,100409.31
2023-04-12T06:01:24.949Z,100407.06
2023-04-12T06:04:42.013Z,100401.31
2023-04-12T06:07:50.626Z,100401.66
2023-04-12T06:10:55.008Z,100392.78
2023-04-12T06:13:58.396Z,100383.03
2023-04-12T06:17:01.435Z,100379.78
2023-04-12T06:20:07.905Z,100385.31
2023-04-12T06:23:13.611Z,100373.78
2023-04-12T06:26:18.840Z,100378.25
2023-04-12T06:29:22.658Z,100369.78
2023-04-12T06:32:26.270Z,100367.16
2023-04-12T06:35:30.372Z,100354.41
2023-04-12T06:38:33.738Z,100356.06
2023-04-12T06:41:37.954Z,100357.41
2023-04-12T06:44:41.205Z,100353.06
2023-04-12T06:47:44.464Z,100358.56
2023-04-12T06:50:47.706Z,100347.19
2023-04-12T06:53:50.757Z,100345.75
2023-04-12T06:56:55.035Z,100342.09
2023-04-12T06:59:57.932Z,100348.22
2023-04-12T07:03:01.031Z,100342.69
2023-04-12T07:06:17.262Z,100347.41
2023-04-12T07:09:24.913Z,100340.25
2023-04-12T07:12:29.144Z,100337.25
2023-04-12T07:15:32.106Z,100334.63
2023-04-12T07:18:35.043Z,100335.19
2023-04-12T07:21:38.060Z,100327.59
2023-04-12T07:24:41.088Z,100318.00
2023-04-12T07:27:45.731Z,100300.19
2023-04-12T07:30:48.929Z,100307.53
2023-04-12T07:33:52.815Z,100302.56
2023-04-12T07:36:56.026Z,100304.72
2023-04-12T07:39:59.103Z,100296.22
2023-04-12T07:43:03.554Z,100293.59
2023-04-12T07:46:08.652Z,100281.50
2023-04-12T07:49:11.867Z,100282.66
2023-04-12T07:52:14.830Z,100282.56
2023-04-12T07:55:17.837Z,100270.22
2023-04-12T07:58:23.839Z,100266.50
2023-04-12T08:01:26.832Z,100259.22
2023-04-12T08:04:30.051Z,100257.22
2023-04-12T08:07:32.998Z,100254.69
2023-04-12T08:10:36.495Z,100253.72
2023-04-12T08:13:40.863Z,100249.28
2023-04-12T08:16:43.821Z,100247.34
2023-04-12T08:19:47.395Z,100241.84
2023-04-12T08:22:52.154Z,100232.41
2023-04-12T08:26:03.060Z,100224.31
2023-04-12T08:29:07.754Z,100230.00
2023-04-12T08:32:12.589Z,100223.22
2023-04-12T08:35:16.437Z,100212.47
2023-04-12T08:38:21.962Z,100211.44
2023-04-12T08:41:29.785Z,100208.41
2023-04-12T08:44:39.515Z,100212.53
2023-04-12T08:47:44.841Z,100196.19
2023-04-12T08:50:50.909Z,100201.03
2023-04-12T08:53:54.085Z,100192.00
2023-04-12T08:57:01.035Z,100186.03
2023-04-12T09:00:09.714Z,100180.69
2023-04-12T09:03:13.068Z,100182.19
2023-04-12T09:06:16.607Z,100173.91
2023-04-12T09:09:19.677Z,100165.50
2023-04-12T09:12:24.353Z,100160.31
2023-04-12T09:15:28.691Z,100152.53
2023-04-12T09:18:31.636Z,100144.38
2023-04-12T09:21:36.856Z,100147.06
2023-04-12T09:24:50.561Z,100139.28
2023-04-12T09:27:58.924Z,100133.69
2023-04-12T09:31:04.549Z,100133.59
2023-04-12T09:34:09.577Z,100131.81
2023-04-12T09:37:17.299Z,100130.78
2023-04-12T09:40:25.387Z,100117.50
2023-04-12T09:43:38.690Z,100119.16
2023-04-12T09:46:52.698Z,100111.78
2023-04-12T09:49:55.906Z,100105.00
2023-04-12T09:52:59.740Z,100098.88
2023-04-12T09:56:05.604Z,100091.00
2023-04-12T09:59:09.208Z,100090.00
2023-04-12T10:02:17.766Z,100070.81
2023-04-12T10:05:26.853Z,100064.88
2023-04-12T10:08:31.473Z,100061.59
2023-04-12T10:11:34.829Z,100049.47
2023-04-12T10:14:38.771Z,100043.41
2023-04-12T10:17:46.426Z,100039.97
2023-04-12T10:20:49.669Z,100033.13
2023-04-12T10:23:55.620Z,100022.97
2023-04-12T10:27:02.802Z,100012.41
2023-04-12T10:30:28.406Z,100007.59
2023-04-12T10:33:32.789Z,100008.94
2023-04-12T10:36:52.907Z,99995.28
2023-04-12T10:39:56.343Z,99997.28
2023-04-12T10:43:28.753Z,99992.03
2023-04-12T10:46:51.374Z,99990.09
2023-04-12T10:50:25.536Z,99973.34
2023-04-12T10:53:34.100Z,99976.88
2023-04-12T10:56:47.225Z,99962.84
2023-04-12T10:59:59.280Z,99957.72
2023-04-12T11:03:11.918Z,99939.59
2023-04-12T11:06:27.072Z,99940.19
2023-04-12T11:09:50.980Z,99934.78
2023-04-12T11:13:13.295Z,99932.28
2023-04-12T11:16:20.809Z,99927.56
2023-04-12T11:19:24.825Z,99915.03
2023-04-12T11:22:32.762Z,99922.91
2023-04-12T11:25:39.675Z,99910.22
2023-04-12T11:28:42.673Z,99912.19
2023-04-12T11:31:49.239Z,99909.00
2023-04-12T11:34:52.316Z,99902.22
2023-04-12T11:37:58.486Z,99900.91
2023-04-12T11:41:02.558Z,99903.22
2023-04-12T11:44:05.706Z,99899.31
2023-04-12T11:47:16.551Z,99877.97
2023-04-12T11:50:31.131Z,99881.38
2023-04-12T11:53:36.242Z,99878.09
2023-04-12T11:56:42.004Z,99866.72
2023-04-12T11:59:48.645Z,99877.59
2023-04-12T12:03:06.659Z,99869.59
2023-04-12T12:06:11.100Z,99851.00
2023-04-12T12:09:16.016Z,99845.84
2023-04-12T12:12:19.172Z,99837.88
2023-04-12T12:15:22.287Z,99827.66
2023-04-12T12:18:28.914Z,99822.38
2023-04-12T12:21:32.410Z,99819.69
2023-04-12T12:24:41.045Z,99812.47
2023-04-12T12:27:48.936Z,99798.09
2023-04-12T12:30:54.690Z,99791.56
2023-04-12T12:33:59.993Z,99789.94
2023-04-12T12:37:03.761Z,99779.75
2023-04-12T12:40:14.709Z,99770.91
2023-04-12T12:43:20.964Z,99759.25
2023-04-12T12:46:24.338Z,99753.47
2023-04-12T12:49:27.527Z,99755.59
2023-04-12T12:52:30.646Z,99756.91
2023-04-12T12:55:35.644Z,99754.75
2023-04-12T12:58:41.060Z,99753.75
2023-04-12T13:01:44.673Z,99751.06
2023-04-12T13:04:47.790Z,99751.28
2023-04-12T13:07:53.796Z,99740.16
2023-04-12T13:10:58.296Z,99731.16
2023-04-12T13:14:01.333Z,99738.53
2023-04-12T13:17:05.695Z,99721.84
2023-04-12T13:20:09.720Z,99706.94
2023-04-12T13:23:13.230Z,99702.84
2023-04-12T13:26:17.706Z,99702.69
2023-04-12T13:29:22.792Z,99699.88
2023-04-12T13:32:25.921Z,99694.69
2023-04-12T13:35:29.024Z,99677.56
2023-04-12T13:38:32.027Z,99686.94
2023-04-12T13:41:36.470Z,99682.63
2023-04-12T13:44:40.376Z,99677.75
2023-04-12T13:47:43.384Z,99673.81
2023-04-12T13:50:47.783Z,99668.34
2023-04-12T13:53:52.971Z,99665.91
2023-04-12T13:56:58.194Z,99663.31
2023-04-12T14:00:14.664Z,99659.19
2023-04-12T14:03:17.904Z,99653.44
2023-04-12T14:06:21.397Z,99652.97
2023-04-12T14:09:25.607Z,99648.19
2023-04-12T14:12:29.994Z,99641.31
2023-04-12T14:15:33.050Z,99637.88
2023-04-12T14:18:36.402Z,99633.75
2023-04-12T14:21:55.350Z,99642.59
2023-04-12T14:25:07.158Z,99633.41
2023-04-12T14:28:17.280Z,99629.16
2023-04-12T14:31:21.103Z,99634.25
2023-04-12T14:34:27.198Z,99632.75
2023-04-12T14:37:30.736Z,99635.34
2023-04-12T14:40:35.770Z,99638.59
2023-04-12T14:43:42.173Z,99642.59
2023-04-12T14:46:46.042Z,99643.75
2023-04-12T14:49:49.559Z,99629.84
2023-04-12T14:52:52.748Z,99631.03
2023-04-12T14:55:55.806Z,99633.28
2023-04-12T14:59:01.863Z,99636.69
2023-04-12T15:02:04.973Z,99631.56
2023-04-12T15:05:09.428Z,99634.19
2023-04-12T15:08:12.838Z,99641.72
2023-04-12T15:11:18.915Z,99630.94
2023-04-12T15:14:23.936Z,99627.34
2023-04-12T15:17:30.950Z,99637.63
2023-04-12T15:20:34.509Z,99645.59
2023-04-12T15:23:40.231Z,99652.19
2023-04-12T15:26:43.474Z,99647.69
2023-04-12T15:29:47.844Z,99652.00
2023-04-12T15:32:54.238Z,99660.53
2023-04-12T15:35:57.844Z,99651.91
2023-04-12T15:39:04.994Z,99671.38
2023-04-12T15:42:08.976Z,99665.16
2023-04-12T15:45:14.079Z,99663.72
2023-04-12T15:48:17.963Z,99662.63
2023-04-12T15:51:21.140Z,99657.56
2023-04-12T15:54:26.866Z,99656.25
2023-04-12T15:57:30.831Z,99654.06
2023-04-12T16:00:35.367Z,99662.44
2023-04-12T16:03:38.642Z,99662.72
2023-04-12T16:06:41.817Z,99660.47
2023-04-12T16:09:45.603Z,99651.44
2023-04-12T16:12:49.609Z,99655.59
2023-04-12T16:15:53.986Z,99640.78
2023-04-12T16:19:00.005Z,99647.63
2023-04-12T16:22:16.088Z,99644.63
2023-04-12T16:25:19.802Z,99638.34
2023-04-12T16:28:22.945Z,99632.88
2023-04-12T16:31:27.610Z,99635.75
2023-04-12T16:34:31.499Z,99631.81
2023-04-12T16:37:35.335Z,99628.66
2023-04-12T16:40:38.936Z,99624.81
2023-04-12T16:43:44.789Z,99620.00
2023-04-12T16:46:50.147Z,99618.06
2023-04-12T16:49:53.270Z,99616.97
2023-04-12T16:52:56.736Z,99618.13
2023-04-12T16:56:02.620Z,99615.47
2023-04-12T16:59:06.531Z,99616.84
2023-04-12T17:02:11.585Z,99611.09
2023-04-12T17:05:18.166Z,99615.34
2023-04-12T17:08:21.449Z,99616.81
2023-04-12T17:11:24.372Z,99622.44
2023-04-12T17:14:29.606Z,99615.84
2023-04-12T17:17:33.927Z,99615.91
2023-04-12T17:20:38.107Z,99606.97
2023-04-12T17:23:44.901Z,99606.63
2023-04-12T17:26:48.411Z,99601.66
2023-04-12T17:29:51.673Z,99601.41
2023-04-12T17:33:01.300Z,99593.84
2023-04-12T17:39:19.822Z,99602.25
2023-04-12T17:42:23.560Z,99587.97
2023-04-12T17:45:28.248Z,99589.59
2023-04-12T17:48:32.973Z,99579.19
2023-04-12T17:51:36.124Z,99573.97
2023-04-12T17:54:39.807Z,99561.59
2023-04-12T17:57:44.300Z,99565.44
2023-04-12T18:00:47.428Z,99569.31
2023-04-12T18:03:52.024Z,99571.94
2023-04-12T18:06:56.346Z,99574.81
2023-04-12T18:09:59.274Z,99572.34
2023-04-12T18:13:03.205Z,99580.72
2023-04-12T18:16:09.038Z,99587.16
2023-04-12T18:19:15.220Z,99588.13
2023-04-12T18:22:24.409Z,99583.84
2023-04-12T18:25:29.574Z,99584.69
2023-04-12T18:28:37.474Z,99586.63
2023-04-12T18:31:42.505Z,99575.91
2023-04-12T18:34:47.445Z,99570.16
2023-04-12T18:37:51.668Z,99574.41
2023-04-12T18:40:57.736Z,99576.19
2023-04-12T18:44:01.055Z,99577.56
2023-04-12T18:47:04.593Z,99583.47
2023-04-12T18:50:11.431Z,99575.09
2023-04-12T18:53:14.428Z,99576.75
2023-04-12T18:56:23.014Z,99574.00
2023-04-12T18:59:26.655Z,99565.91
2023-04-12T19:02:34.638Z,99565.22
2023-04-12T19:05:39.972Z,99563.84
2023-04-12T19:08:43.182Z,99577.44
2023-04-12T19:12:22.108Z,99584.59
2023-04-12T19:15:28.188Z,99588.28
2023-04-12T19:18:31.589Z,99583.31
2023-04-12T19:21:36.426Z,99574.16
2023-04-12T19:24:42.418Z,99560.44
2023-04-12T19:27:45.658Z,99550.31
2023-04-12T19:30:49.273Z,99549.59
2023-04-12T19:33:56.633Z,99543.06
2023-04-12T19:37:03.030Z,99552.91
2023-04-12T19:40:09.329Z,99551.28
2023-04-12T19:43:14.176Z,99548.38
2023-04-12T19:46:18.207Z,99545.25
2023-04-12T19:49:23.703Z,99543.47
2023-04-12T19:52:28.750Z,99541.78
2023-04-12T19:55:31.848Z,99540.31
2023-04-12T19:58:39.445Z,99537.03
2023-04-12T20:01:48.161Z,99539.47
2023-04-12T20:04:53.710Z,99542.19
2023-04-12T20:07:59.030Z,99531.13
2023-04-12T20:11:03.340Z,99533.72
2023-04-12T20:14:09.905Z,99528.78
2023-04-12T20:17:13.408Z,99527.34
2023-04-12T20:20:17.293Z,99519.41
2023-04-12T20:23:21.889Z,99513.38
2023-04-12T20:26:27.539Z,99497.06
2023-04-12T20:29:32.642Z,99503.63
2023-04-12T20:32:36.119Z,99507.63
2023-04-12T20:35:39.199Z,99485.16
2023-04-12T20:38:43.824Z,99482.56
2023-04-12T20:41:50.145Z,99470.09
2023-04-12T20:44:53.342Z,99462.84
2023-04-12T20:47:56.390Z,99467.50
2023-04-12T20:50:59.363Z,99469.03
2023-04-12T20:54:03.778Z,99473.31
2023-04-12T20:57:07.758Z,99475.16
2023-04-12T21:00:17.832Z,99471.22
2023-04-12T21:03:21.529Z,99469.03
2023-04-12T21:06:24.996Z,99471.19
2023-04-12T21:09:29.887Z,99455.16
2023-04-12T21:12:34.746Z,99466.78
2023-04-12T21:15:38.389Z,99464.59
2023-04-12T21:18:41.583Z,99457.22
2023-04-12T21:21:44.857Z,99453.13
2023-04-12T21:24:49.670Z,99457.63
2023-04-12T21:27:53.078Z,99450.66
2023-04-12T21:30:58.184Z,99448.28
2023-04-12T21:34:02.070Z,99449.25
2023-04-12T21:37:05.447Z,99455.81
2023-04-12T21:40:12.762Z,99437.03
2023-04-12T21:43:16.523Z,99441.81
2023-04-12T21:46:19.854Z,99447.72
2023-04-12T21:49:24.293Z,99450.31
2023-04-12T21:52:27.642Z,99443.34
2023-04-12T21:55:32.435Z,99443.91
2023-04-12T21:58:35.585Z,99437.47
2023-04-12T22:01:38.944Z,99429.94
2023-04-12T22:04:42.401Z,99427.50
2023-04-12T22:07:45.392Z,99430.91
2023-04-12T22:10:50.321Z,99419.97
2023-04-12T22:13:54.007Z,99416.00
2023-04-12T22:16:57.521Z,99419.38
2023-04-12T22:20:00.975Z,99422.25
2023-04-12T22:23:03.910Z,99421.44
2023-04-12T22:26:09.687Z,99418.94
2023-04-12T22:29:12.625Z,99425.41
2023-04-12T22:32:15.682Z,99426.06
2023-04-12T22:35:18.838Z,99427.72
2023-04-12T22:38:21.858Z,99430.06
2023-04-12T22:41:28.314Z,99440.88
2023-04-12T22:44:37.908Z,99444.84
2023-04-12T22:47:42.759Z,99432.81
2023-04-12T22:50:45.933Z,99431.84
2023-04-12T22:53:50.312Z,99422.53
2023-04-12T22:56:54.703Z,99417.78
2023-04-12T22:59:59.090Z,99400.25
2023-04-12T23:03:04.212Z,99407.09
2023-04-12T23:06:08.009Z,99405.16
2023-04-12T23:09:12.685Z,99421.31
2023-04-12T23:12:17.102Z,99411.69
2023-04-12T23:15:20.370Z,99428.94
2023-04-12T23:18:25.595Z,99425.66
2023-04-12T23:21:30.387Z,99420.44
2023-04-12T23:24:35.056Z,99406.25
2023-04-12T23:27:39.389Z,99402.69
2023-04-12T23:30:47.394Z,99412.81
2023-04-12T23:33:50.640Z,99406.38
2023-04-12T23:36:54.966Z,99401.44
2023-04-12T23:40:05.535Z,99415.53
2023-04-12T23:43:10.020Z,99411.69
2023-04-12T23:46:15.511Z,99419.31
2023-04-12T23:49:18.652Z,99429.84
2023-04-12T23:52:24.137Z,99433.22
2023-04-12T23:55:27.190Z,99416.63
2023-04-12T23:58:31.582Z,99409.50
